Time;durP1;ratioP1;P1;durP2;ratioP2;P2;SDS_P1;SDS_P2;PMS_P1;PMS_P2;Temp;Humidity;BMP_temperature;BMP_pressure;BME280_temperature;BME280_humidity;BME280_pressure;Samples;Min_cycle;Max_cycle;Signal;HPM_P1;HPM_P2
2022/01/16 00:00:26;;;;;;;30.23;15.27;;;0.40;99.90;;;;;;4165017;28;20505;-78
2022/01/16 00:04:44;;;;;;;29.23;14.57;;;0.40;99.90;;;;;;4161273;28;20533;-78
2022/01/16 00:06:46;;;;;;;28.97;13.90;;;0.40;99.90;;;;;;4162564;28;20581;-79
2022/01/16 00:08:48;;;;;;;32.47;14.70;;;0.40;99.90;;;;;;4167753;28;20486;-78
2022/01/16 00:10:50;;;;;;;28.03;14.63;;;0.40;99.90;;;;;;4164952;28;20918;-78
2022/01/16 00:12:59;;;;;;;31.73;14.87;;;0.40;99.90;;;;;;4168579;28;20496;-78
2022/01/16 00:15:02;;;;;;;33.53;14.63;;;0.40;99.90;;;;;;4162075;28;20480;-78
2022/01/16 00:17:05;;;;;;;30.17;14.50;;;0.40;99.90;;;;;;4164698;28;20454;-78
2022/01/16 00:19:06;;;;;;;27.23;14.20;;;0.30;99.90;;;;;;4164075;28;20434;-78
2022/01/16 00:21:08;;;;;;;30.03;13.73;;;0.40;99.90;;;;;;4163918;28;20486;-78
2022/01/16 00:23:10;;;;;;;32.43;15.00;;;0.30;99.90;;;;;;4165986;28;20475;-78
2022/01/16 00:25:12;;;;;;;34.67;15.10;;;0.50;99.90;;;;;;4151204;28;20455;-78
2022/01/16 00:27:14;;;;;;;32.10;15.23;;;0.30;99.90;;;;;;4172238;28;20497;-79
2022/01/16 00:29:16;;;;;;;32.67;15.67;;;0.50;99.90;;;;;;4165391;28;20508;-78
2022/01/16 00:31:21;;;;;;;34.83;15.23;;;0.30;99.90;;;;;;4163997;28;20462;-78
2022/01/16 00:33:23;;;;;;;32.97;15.00;;;0.30;99.90;;;;;;4161683;28;21024;-78
2022/01/16 00:35:25;;;;;;;29.33;14.80;;;0.30;99.90;;;;;;4161512;28;20488;-79
2022/01/16 00:37:26;;;;;;;30.60;14.67;;;0.20;99.90;;;;;;4155934;28;20565;-78
2022/01/16 00:39:29;;;;;;;30.30;14.77;;;0.20;99.90;;;;;;4163240;28;20538;-78
2022/01/16 00:41:32;;;;;;;28.33;14.70;;;0.20;99.90;;;;;;4163678;28;20450;-79
2022/01/16 00:43:34;;;;;;;29.43;14.87;;;0.20;99.90;;;;;;4161452;28;20459;-78
2022/01/16 00:45:35;;;;;;;33.87;15.23;;;0.20;99.90;;;;;;4147885;28;21096;-78
2022/01/16 00:47:38;;;;;;;31.37;15.03;;;0.10;99.90;;;;;;4155418;28;20565;-78
2022/01/16 00:49:41;;;;;;;30.97;14.57;;;0.20;99.90;;;;;;4164858;28;20481;-78
2022/01/16 00:51:43;;;;;;;28.57;13.63;;;0.20;99.90;;;;;;4159156;28;20475;-78
2022/01/16 00:53:44;;;;;;;33.27;13.83;;;0.10;99.90;;;;;;4162049;28;20479;-78
2022/01/16 00:55:46;;;;;;;31.07;14.03;;;0.10;99.90;;;;;;4165235;28;20827;-78
2022/01/16 00:57:48;;;;;;;31.97;15.10;;;0.10;99.90;;;;;;4165673;28;20486;-78
2022/01/16 00:59:50;;;;;;;29.73;14.87;;;0.10;99.90;;;;;;4164346;28;20471;-78
2022/01/16 01:01:51;;;;;;;28.43;14.07;;;0.10;99.90;;;;;;4169320;28;20462;-79
2022/01/16 01:03:57;;;;;;;32.67;14.50;;;0.10;99.90;;;;;;4166979;28;20960;-78
2022/01/16 01:05:59;;;;;;;27.97;13.43;;;0.10;99.90;;;;;;4165252;28;20478;-78
2022/01/16 01:08:01;;;;;;;28.10;14.33;;;0.00;99.90;;;;;;4153404;28;21050;-78
2022/01/16 01:10:03;;;;;;;30.07;13.87;;;0.00;99.90;;;;;;4168135;28;20466;-78
2022/01/16 01:12:06;;;;;;;32.37;14.07;;;0.00;99.90;;;;;;4164124;28;20497;-78
2022/01/16 01:14:16;;;;;;;29.53;14.10;;;0.00;99.90;;;;;;4169495;28;20513;-78
2022/01/16 01:16:17;;;;;;;27.43;13.47;;;0.00;99.90;;;;;;4153732;28;20478;-78
2022/01/16 01:18:21;;;;;;;31.60;15.20;;;0.00;99.90;;;;;;4150676;28;20462;-78
2022/01/16 01:20:25;;;;;;;33.20;14.30;;;-0.10;99.90;;;;;;4157617;28;20501;-77
2022/01/16 01:22:27;;;;;;;30.43;14.30;;;-0.10;99.90;;;;;;4160586;28;20461;-78
2022/01/16 01:24:29;;;;;;;30.50;13.20;;;-0.10;99.90;;;;;;4167856;28;20483;-78
2022/01/16 01:26:36;;;;;;;29.00;13.47;;;-0.10;99.90;;;;;;4151639;28;20466;-78
2022/01/16 01:28:40;;;;;;;30.10;13.43;;;-0.10;99.90;;;;;;4157802;28;20459;-79
2022/01/16 01:30:43;;;;;;;31.77;14.73;;;-0.10;99.90;;;;;;4170698;28;20808;-79
2022/01/16 01:32:49;;;;;;;30.43;13.40;;;-0.10;99.90;;;;;;4170780;28;20462;-78
2022/01/16 01:34:51;;;;;;;29.03;13.73;;;-0.10;99.90;;;;;;4160220;28;20497;-79
2022/01/16 01:36:54;;;;;;;28.30;13.13;;;0.00;99.90;;;;;;4149870;28;20464;-79
2022/01/16 01:38:55;;;;;;;29.33;12.87;;;-0.20;99.90;;;;;;4149805;28;20963;-78
2022/01/16 01:40:58;;;;;;;28.07;13.63;;;-0.20;99.90;;;;;;4163556;28;20454;-78
2022/01/16 01:51:00;;;;;;;27.90;13.20;;;-0.20;99.90;;;;;;4162097;28;20556;-79
2022/01/16 01:52:45;;;;;;;25.33;11.40;;;-0.20;99.90;;;;;;4165443;28;20888;-79
2022/01/16 01:54:48;;;;;;;25.33;12.03;;;-0.20;99.90;;;;;;4176150;28;20457;-79
2022/01/16 01:56:52;;;;;;;30.00;11.90;;;-0.30;99.90;;;;;;4166567;28;20489;-78
2022/01/16 01:58:56;;;;;;;27.07;12.77;;;-0.30;99.90;;;;;;4166055;28;20461;-78
2022/01/16 02:00:58;;;;;;;25.97;12.03;;;-0.30;99.90;;;;;;4165654;28;20472;-78
2022/01/16 02:03:13;;;;;;;26.30;12.20;;;-0.20;99.90;;;;;;4164975;28;20461;-78
2022/01/16 02:05:14;;;;;;;26.43;12.23;;;-0.30;99.90;;;;;;4164702;28;20462;-79
2022/01/16 02:07:16;;;;;;;28.03;12.03;;;-0.30;99.90;;;;;;4158448;28;20503;-79
2022/01/16 02:09:21;;;;;;;31.63;13.80;;;-0.30;99.90;;;;;;4149510;28;20828;-79
2022/01/16 02:11:25;;;;;;;26.87;11.97;;;-0.30;99.90;;;;;;4161974;28;20504;-79
2022/01/16 02:13:31;;;;;;;28.67;11.90;;;-0.30;99.90;;;;;;4164337;28;20477;-79
2022/01/16 02:34:44;;;;;;;23.17;10.57;;;-0.40;99.90;;;;;;4158966;28;20454;-79
2022/01/16 02:36:49;;;;;;;24.10;10.87;;;-0.40;99.90;;;;;;4165811;28;20573;-79
2022/01/16 02:38:52;;;;;;;21.90;10.53;;;-0.40;99.90;;;;;;4165030;28;20457;-79
2022/01/16 02:41:03;;;;;;;24.00;10.70;;;-0.40;99.90;;;;;;4161850;28;20528;-79
2022/01/16 02:43:05;;;;;;;20.87;10.17;;;-0.40;99.90;;;;;;4159316;28;20532;-79
2022/01/16 02:45:16;;;;;;;24.03;11.50;;;-0.40;99.90;;;;;;4164292;28;20464;-80
2022/01/16 02:47:20;;;;;;;21.57;10.47;;;-0.50;99.90;;;;;;4164171;28;20592;-80
2022/01/16 02:49:24;;;;;;;24.40;10.50;;;-0.50;99.90;;;;;;4164327;28;20508;-79
2022/01/16 02:51:28;;;;;;;23.07;10.77;;;-0.50;99.90;;;;;;4154349;28;20471;-79
2022/01/16 02:53:29;;;;;;;23.93;10.57;;;-0.50;99.90;;;;;;4157652;28;20459;-79
2022/01/16 02:55:33;;;;;;;24.57;10.97;;;-0.50;99.90;;;;;;4163578;28;20955;-80
2022/01/16 02:57:35;;;;;;;22.60;10.87;;;-0.20;99.90;;;;;;4164118;28;20466;-80
2022/01/16 02:59:38;;;;;;;23.50;10.20;;;-0.50;99.90;;;;;;4159947;28;20467;-80
2022/01/16 03:01:40;;;;;;;25.97;10.73;;;-0.50;99.90;;;;;;4164273;28;20522;-79
2022/01/16 03:03:42;;;;;;;20.53;9.60;;;-0.50;99.90;;;;;;4164674;28;20461;-79
2022/01/16 03:05:44;;;;;;;19.87;10.80;;;-0.50;99.90;;;;;;4164439;28;20497;-80
2022/01/16 03:07:46;;;;;;;21.30;10.67;;;-0.50;99.90;;;;;;4188476;22;20943;-77
2022/01/16 03:10:03;;;;;;;25.00;11.13;;;-0.60;99.90;;;;;;4155768;28;20490;-76
2022/01/16 03:12:09;;;;;;;20.63;9.87;;;-0.60;99.90;;;;;;4161438;28;20488;-77
2022/01/16 03:14:13;;;;;;;22.93;9.77;;;-0.60;99.90;;;;;;4163626;28;20515;-76
2022/01/16 03:16:15;;;;;;;22.13;9.90;;;-0.60;99.90;;;;;;4154078;28;20969;-76
2022/01/16 03:22:57;;;;;;;21.60;10.67;;;-0.60;99.90;;;;;;4147923;28;20982;-77
2022/01/16 03:24:58;;;;;;;22.73;10.20;;;-0.60;99.90;;;;;;4140047;28;20459;-76
2022/01/16 03:27:01;;;;;;;21.00;11.40;;;-0.60;99.90;;;;;;4147677;28;20573;-76
2022/01/16 03:29:05;;;;;;;21.50;9.80;;;-0.60;99.90;;;;;;4148418;28;20466;-77
2022/01/16 03:31:06;;;;;;;19.57;9.73;;;-0.60;99.90;;;;;;4143738;28;20888;-77
2022/01/16 03:33:08;;;;;;;24.57;11.37;;;-0.70;99.90;;;;;;4147297;28;20455;-76
2022/01/16 03:35:10;;;;;;;22.90;10.63;;;-0.60;99.90;;;;;;4138331;28;20487;-76
2022/01/16 03:37:12;;;;;;;20.50;10.73;;;-0.70;99.90;;;;;;4130610;28;20988;-77
2022/01/16 03:39:14;;;;;;;21.23;10.77;;;-0.70;99.90;;;;;;4134272;28;20490;-76
2022/01/16 03:41:16;;;;;;;20.77;10.80;;;-0.70;99.90;;;;;;4147165;28;20522;-76
2022/01/16 03:43:18;;;;;;;22.50;11.03;;;-0.70;99.90;;;;;;4146105;28;20463;-76
2022/01/16 03:45:21;;;;;;;25.37;11.23;;;-0.70;99.90;;;;;;4130652;28;20990;-77
2022/01/16 03:47:22;;;;;;;23.73;11.27;;;-0.70;99.90;;;;;;4130738;28;20495;-76
2022/01/16 03:49:27;;;;;;;20.50;10.90;;;-0.70;99.90;;;;;;4131019;28;20949;-77
2022/01/16 03:51:29;;;;;;;24.00;11.70;;;-0.70;99.90;;;;;;4145950;28;20509;-76
2022/01/16 03:53:30;;;;;;;23.80;11.80;;;-0.70;99.90;;;;;;4142828;28;20482;-77
2022/01/16 03:55:34;;;;;;;25.73;11.77;;;-0.70;99.90;;;;;;4146397;28;20964;-76
2022/01/16 03:57:36;;;;;;;25.47;11.77;;;-0.70;99.90;;;;;;4146676;28;20479;-76
2022/01/16 03:59:38;;;;;;;25.97;12.77;;;-0.70;99.90;;;;;;4142395;28;21225;-77
2022/01/16 04:01:41;;;;;;;24.90;12.03;;;-0.80;99.90;;;;;;4147632;28;20498;-77
2022/01/16 04:03:43;;;;;;;23.57;11.50;;;-0.70;99.90;;;;;;4147147;28;20483;-76
2022/01/16 04:05:44;;;;;;;22.97;11.23;;;-0.70;99.90;;;;;;4147814;28;20518;-76
2022/01/16 04:07:48;;;;;;;27.57;12.50;;;-0.80;99.90;;;;;;4146862;28;20494;-76
2022/01/16 04:09:49;;;;;;;24.23;12.30;;;-0.70;99.90;;;;;;4146412;28;20537;-76
2022/01/16 04:11:53;;;;;;;26.73;12.70;;;-0.70;99.90;;;;;;4145392;28;20459;-76
2022/01/16 04:14:04;;;;;;;26.53;12.57;;;-0.80;99.90;;;;;;4146298;28;20858;-76
2022/01/16 04:16:06;;;;;;;23.10;11.40;;;-0.70;99.90;;;;;;4137151;28;20554;-76
2022/01/16 04:18:09;;;;;;;27.40;12.20;;;-0.70;99.90;;;;;;4131064;28;20996;-76
2022/01/16 04:20:15;;;;;;;25.77;11.27;;;-0.70;99.90;;;;;;4130267;28;20812;-76
2022/01/16 04:22:17;;;;;;;23.03;11.17;;;-0.70;99.90;;;;;;4140240;28;20547;-76
2022/01/16 04:24:19;;;;;;;22.67;11.53;;;-0.80;99.90;;;;;;4143504;28;20513;-77
2022/01/16 04:26:23;;;;;;;24.20;11.23;;;-0.70;99.90;;;;;;4139986;28;20505;-76
2022/01/16 04:28:25;;;;;;;24.53;11.33;;;-0.70;99.90;;;;;;4146046;28;20486;-76
2022/01/16 04:30:27;;;;;;;24.37;11.80;;;-0.80;99.90;;;;;;4144649;28;20509;-77
2022/01/16 04:32:29;;;;;;;26.40;12.20;;;-0.80;99.90;;;;;;4147189;28;20460;-76
2022/01/16 04:34:32;;;;;;;25.43;11.77;;;-0.80;99.90;;;;;;4138635;28;20468;-76
2022/01/16 04:36:33;;;;;;;25.53;12.47;;;-0.80;99.90;;;;;;4146417;28;20455;-76
2022/01/16 04:38:37;;;;;;;25.90;12.73;;;-0.80;99.90;;;;;;4145624;28;20495;-76
2022/01/16 04:40:45;;;;;;;23.17;11.17;;;-0.80;99.90;;;;;;4143590;28;20564;-77
2022/01/16 04:45:06;;;;;;;22.97;11.47;;;-0.80;99.90;;;;;;4145499;28;20489;-76
2022/01/16 04:47:08;;;;;;;24.50;11.83;;;-0.80;99.90;;;;;;4146540;28;20463;-76
2022/01/16 04:49:10;;;;;;;24.13;11.87;;;-0.80;99.90;;;;;;4147732;28;21012;-76
2022/01/16 04:51:13;;;;;;;25.60;12.13;;;-0.80;99.90;;;;;;4148755;28;20482;-76
2022/01/16 04:53:15;;;;;;;29.07;11.73;;;-0.80;99.90;;;;;;4145593;28;20474;-76
2022/01/16 04:55:17;;;;;;;23.87;11.07;;;-0.80;99.90;;;;;;4146632;28;20474;-76
2022/01/16 04:57:19;;;;;;;24.27;11.93;;;-0.80;99.90;;;;;;4145079;28;20522;-76
2022/01/16 04:59:21;;;;;;;25.13;11.63;;;-0.80;99.90;;;;;;4143090;28;20484;-76
2022/01/16 05:01:23;;;;;;;24.07;11.87;;;-0.80;99.90;;;;;;4149511;28;20842;-76
2022/01/16 05:03:27;;;;;;;25.33;11.57;;;-0.80;99.90;;;;;;4149901;28;20474;-75
2022/01/16 05:05:28;;;;;;;23.70;12.07;;;-0.70;99.90;;;;;;4149699;28;22385;-76
2022/01/16 05:07:31;;;;;;;25.57;12.50;;;-0.70;99.90;;;;;;4150036;28;20482;-76
2022/01/16 05:09:33;;;;;;;27.60;12.47;;;-0.70;99.90;;;;;;4144102;28;20517;-76
2022/01/16 05:11:35;;;;;;;28.07;13.20;;;-0.70;99.90;;;;;;4149784;28;20467;-76
2022/01/16 05:18:16;;;;;;;29.53;13.87;;;-0.70;99.90;;;;;;4148574;28;20482;-76
2022/01/16 05:20:18;;;;;;;28.00;13.37;;;-0.70;99.90;;;;;;4149194;28;20462;-76
2022/01/16 05:22:19;;;;;;;31.37;13.87;;;-0.70;99.90;;;;;;4148811;28;20974;-76
2022/01/16 05:24:24;;;;;;;29.67;13.60;;;-0.70;99.90;;;;;;4145426;28;20440;-76
2022/01/16 05:26:28;;;;;;;29.90;13.50;;;-0.70;99.90;;;;;;4143417;28;20466;-76
2022/01/16 05:28:29;;;;;;;35.03;13.80;;;-0.70;99.90;;;;;;4149433;28;20486;-76
2022/01/16 05:30:31;;;;;;;32.57;13.83;;;-0.40;99.90;;;;;;4148798;28;20505;-76
2022/01/16 05:32:33;;;;;;;32.90;14.10;;;-0.70;99.90;;;;;;4148374;28;20490;-76
2022/01/16 05:34:34;;;;;;;28.10;13.00;;;-0.70;99.90;;;;;;4146248;28;20473;-75
2022/01/16 05:36:36;;;;;;;35.50;14.50;;;-0.60;99.90;;;;;;4145353;28;20769;-76
2022/01/16 05:38:38;;;;;;;32.53;13.80;;;-0.70;99.90;;;;;;4144025;28;20458;-76
2022/01/16 05:40:42;;;;;;;34.93;14.53;;;-0.70;99.90;;;;;;4147019;28;20497;-76
2022/01/16 05:42:44;;;;;;;36.60;14.83;;;-0.60;99.90;;;;;;4145190;28;21024;-76
2022/01/16 05:44:46;;;;;;;33.70;14.57;;;-0.60;99.90;;;;;;4142963;28;20520;-75
2022/01/16 05:46:47;;;;;;;35.17;14.17;;;-0.60;99.90;;;;;;4147148;28;20467;-75
2022/01/16 05:48:50;;;;;;;34.27;14.73;;;-0.60;99.90;;;;;;4146183;28;20979;-77
2022/01/16 05:50:52;;;;;;;32.63;13.33;;;-0.50;99.90;;;;;;4146960;28;20450;-76
2022/01/16 05:52:54;;;;;;;35.63;14.03;;;-0.60;99.90;;;;;;4146829;28;20513;-76
2022/01/16 05:54:56;;;;;;;34.33;14.20;;;-0.60;99.90;;;;;;4147737;28;20516;-76
2022/01/16 05:56:59;;;;;;;31.17;13.47;;;-0.60;99.90;;;;;;4148492;28;21004;-76
2022/01/16 05:59:00;;;;;;;33.87;14.53;;;-0.50;99.90;;;;;;4149240;28;20516;-76
2022/01/16 06:01:02;;;;;;;35.37;13.70;;;-0.50;99.90;;;;;;4146995;28;20478;-76
2022/01/16 06:03:04;;;;;;;32.37;14.00;;;-0.50;99.90;;;;;;4148770;28;20775;-76
2022/01/16 06:05:07;;;;;;;31.27;14.07;;;-0.50;99.90;;;;;;4147642;28;20509;-76
2022/01/16 06:07:09;;;;;;;32.23;13.30;;;-0.50;99.90;;;;;;4148249;28;20486;-76
2022/01/16 06:09:10;;;;;;;32.60;13.23;;;-0.50;99.90;;;;;;4148623;28;20529;-76
2022/01/16 06:11:12;;;;;;;29.33;12.60;;;-0.50;99.90;;;;;;4139792;28;20503;-75
2022/01/16 06:13:15;;;;;;;28.87;12.77;;;-0.40;99.90;;;;;;4153339;28;20948;-76
2022/01/16 06:15:17;;;;;;;34.47;14.10;;;-0.40;99.90;;;;;;4132315;28;20896;-76
2022/01/16 06:17:18;;;;;;;33.57;14.23;;;-0.40;99.90;;;;;;4132461;28;21004;-76
2022/01/16 06:19:21;;;;;;;31.00;13.50;;;-0.40;99.90;;;;;;4133112;28;20452;-76
2022/01/16 06:21:22;;;;;;;29.50;13.87;;;-0.40;99.90;;;;;;4137139;28;20475;-76
2022/01/16 06:23:24;;;;;;;31.83;13.20;;;-0.40;99.90;;;;;;4143589;28;20466;-76
2022/01/16 06:25:26;;;;;;;32.63;13.50;;;-0.30;99.90;;;;;;4146912;28;20813;-76
2022/01/16 06:27:27;;;;;;;34.07;14.03;;;-0.30;99.90;;;;;;4148335;28;20999;-76
2022/01/16 06:29:30;;;;;;;34.20;13.80;;;-0.30;99.90;;;;;;4145966;28;20498;-76
2022/01/16 06:31:32;;;;;;;34.10;13.90;;;-0.30;99.90;;;;;;4148489;28;20537;-76
2022/01/16 06:33:34;;;;;;;31.40;13.90;;;-0.30;99.90;;;;;;4146502;28;20481;-76
2022/01/16 06:35:35;;;;;;;35.57;15.23;;;-0.30;99.90;;;;;;4131454;28;20460;-76
2022/01/16 06:37:37;;;;;;;33.23;14.20;;;-0.20;99.90;;;;;;4132159;28;20514;-76
2022/01/16 06:39:39;;;;;;;34.73;14.57;;;-0.20;99.90;;;;;;4133053;28;20456;-76
2022/01/16 06:41:41;;;;;;;32.30;14.40;;;-0.20;99.90;;;;;;4142598;28;20506;-76
2022/01/16 06:43:42;;;;;;;32.33;15.13;;;-0.20;99.90;;;;;;4146095;28;20550;-76
2022/01/16 06:45:45;;;;;;;30.87;13.50;;;-0.20;99.90;;;;;;4148546;28;20459;-76
2022/01/16 06:47:47;;;;;;;32.23;13.70;;;-0.10;99.90;;;;;;4147691;28;20545;-76
2022/01/16 06:49:49;;;;;;;34.13;14.87;;;-0.10;99.90;;;;;;4148577;28;20506;-76
2022/01/16 06:51:51;;;;;;;31.07;14.00;;;-0.10;99.90;;;;;;4148013;28;20467;-76
2022/01/16 06:53:55;;;;;;;31.17;13.97;;;-0.10;99.90;;;;;;4147336;28;20475;-76
2022/01/16 06:55:57;;;;;;;32.47;14.27;;;-0.10;99.90;;;;;;4146540;28;20505;-76
2022/01/16 06:57:58;;;;;;;30.70;13.97;;;0.00;99.90;;;;;;4146977;28;20460;-76
2022/01/16 07:00:00;;;;;;;28.63;13.07;;;0.00;99.90;;;;;;4147725;28;20464;-76
2022/01/16 07:02:03;;;;;;;30.50;14.43;;;0.00;99.90;;;;;;4147567;28;20455;-76
2022/01/16 07:04:05;;;;;;;31.60;14.07;;;0.00;99.90;;;;;;4147192;28;20546;-76
2022/01/16 07:06:07;;;;;;;31.93;14.47;;;0.00;99.90;;;;;;4162577;28;20482;-76
2022/01/16 07:08:08;;;;;;;30.10;13.87;;;0.10;99.90;;;;;;4163092;28;20581;-76
2022/01/16 07:10:10;;;;;;;31.97;14.27;;;0.10;99.90;;;;;;4142854;28;20520;-76
2022/01/16 07:12:12;;;;;;;31.27;14.47;;;0.10;99.90;;;;;;4145629;28;20459;-76
2022/01/16 07:14:14;;;;;;;28.30;13.17;;;0.10;99.90;;;;;;4138281;28;20478;-76
2022/01/16 07:16:15;;;;;;;29.47;13.23;;;0.10;99.90;;;;;;4143300;28;20517;-76
2022/01/16 07:18:19;;;;;;;27.50;13.20;;;0.10;99.90;;;;;;4132442;28;20560;-76
2022/01/16 07:20:20;;;;;;;28.80;13.23;;;0.10;99.90;;;;;;4131156;28;20498;-76
2022/01/16 07:22:23;;;;;;;28.63;13.50;;;0.20;99.90;;;;;;4147352;28;20466;-76
2022/01/16 07:24:25;;;;;;;27.53;13.23;;;0.10;99.90;;;;;;4147359;28;20546;-76
2022/01/16 07:26:26;;;;;;;32.13;13.90;;;0.10;99.90;;;;;;4145461;28;20968;-76
2022/01/16 07:28:28;;;;;;;27.40;12.83;;;0.10;99.90;;;;;;4147093;28;20507;-76
2022/01/16 07:30:30;;;;;;;28.53;13.07;;;0.10;99.90;;;;;;4141008;28;20485;-77
2022/01/16 07:32:31;;;;;;;25.73;12.80;;;0.10;99.90;;;;;;4131329;28;20546;-76
2022/01/16 07:34:34;;;;;;;26.20;13.10;;;0.10;99.90;;;;;;4154540;28;20461;-76
2022/01/16 07:36:36;;;;;;;26.50;13.33;;;0.10;99.90;;;;;;4147285;28;20936;-76
2022/01/16 07:38:38;;;;;;;25.50;12.80;;;0.00;99.90;;;;;;4142027;28;20466;-76
2022/01/16 07:40:39;;;;;;;24.63;11.70;;;0.10;99.90;;;;;;4147484;28;20478;-76
2022/01/16 07:42:41;;;;;;;24.60;12.23;;;0.10;99.90;;;;;;4147283;28;20458;-76
2022/01/16 07:44:43;;;;;;;23.87;11.57;;;0.10;99.90;;;;;;4146230;28;20449;-76
2022/01/16 07:46:45;;;;;;;23.30;11.90;;;0.10;99.90;;;;;;4145469;28;20475;-76
2022/01/16 07:48:46;;;;;;;24.20;12.33;;;0.10;99.90;;;;;;4131377;28;20971;-77
2022/01/16 07:50:49;;;;;;;25.87;12.67;;;0.10;99.90;;;;;;4130846;28;20467;-76
2022/01/16 07:52:51;;;;;;;26.43;12.83;;;0.10;99.90;;;;;;4130693;28;20456;-76
2022/01/16 07:54:53;;;;;;;26.40;12.33;;;0.10;99.90;;;;;;4134731;28;20883;-76
2022/01/16 07:56:57;;;;;;;28.27;12.27;;;0.20;99.90;;;;;;4131312;28;20530;-76
2022/01/16 07:58:59;;;;;;;24.43;11.80;;;0.20;99.90;;;;;;4132963;28;20941;-76
2022/01/16 08:01:00;;;;;;;22.07;11.10;;;0.20;99.90;;;;;;4147024;28;21221;-76
2022/01/16 08:03:03;;;;;;;22.63;11.20;;;0.20;99.90;;;;;;4147098;28;20459;-76
2022/01/16 08:05:06;;;;;;;21.00;10.87;;;0.20;99.90;;;;;;4140849;28;20521;-76
2022/01/16 08:07:10;;;;;;;22.33;10.00;;;0.30;99.90;;;;;;4146440;28;21007;-77
2022/01/16 08:09:12;;;;;;;23.23;11.07;;;0.30;99.90;;;;;;4147163;28;20505;-76
2022/01/16 08:11:13;;;;;;;21.93;10.80;;;0.30;99.90;;;;;;4145930;28;20468;-76
2022/01/16 08:13:15;;;;;;;21.77;10.67;;;0.30;99.90;;;;;;4146072;28;20962;-76
2022/01/16 08:15:17;;;;;;;21.03;10.90;;;0.40;99.90;;;;;;4144363;28;20462;-76
2022/01/16 08:17:18;;;;;;;18.17;10.07;;;0.40;99.90;;;;;;4139503;28;20509;-76
2022/01/16 08:19:20;;;;;;;22.07;11.37;;;0.40;99.90;;;;;;4144090;28;20483;-76
2022/01/16 08:21:22;;;;;;;25.87;11.50;;;0.40;99.90;;;;;;4134636;28;20491;-76
2022/01/16 08:23:25;;;;;;;22.80;11.17;;;0.50;99.90;;;;;;4129651;28;20494;-76
2022/01/16 08:25:27;;;;;;;22.03;11.07;;;0.50;99.90;;;;;;4135563;28;20478;-76
2022/01/16 08:27:28;;;;;;;22.53;11.27;;;0.50;99.90;;;;;;4146896;28;20908;-77
2022/01/16 08:29:30;;;;;;;22.80;10.63;;;0.50;99.90;;;;;;4139468;28;20585;-76
2022/01/16 08:31:32;;;;;;;23.93;11.83;;;0.60;99.90;;;;;;4154675;28;20472;-76
2022/01/16 08:33:34;;;;;;;23.43;11.20;;;0.60;99.90;;;;;;4163629;28;20475;-76
2022/01/16 08:35:35;;;;;;;24.93;11.53;;;0.60;99.90;;;;;;4145450;28;20497;-76
2022/01/16 08:37:37;;;;;;;23.33;11.93;;;0.60;99.90;;;;;;4141111;28;20493;-76
2022/01/16 08:39:40;;;;;;;24.20;11.67;;;0.70;99.90;;;;;;4147156;28;20456;-76
2022/01/16 08:41:42;;;;;;;25.73;11.90;;;0.70;99.90;;;;;;4146317;28;20466;-77
2022/01/16 08:43:44;;;;;;;20.30;10.47;;;0.70;99.90;;;;;;4143715;28;20477;-77
2022/01/16 08:45:46;;;;;;;20.97;11.07;;;0.70;99.90;;;;;;4146788;28;20472;-77
2022/01/16 08:47:48;;;;;;;21.90;10.93;;;0.80;99.90;;;;;;4146973;28;20525;-76
2022/01/16 08:49:49;;;;;;;22.63;11.20;;;0.80;99.90;;;;;;4147240;28;20489;-77
2022/01/16 08:51:51;;;;;;;23.83;11.17;;;0.80;99.90;;;;;;4146801;28;20961;-76
2022/01/16 08:53:53;;;;;;;26.60;11.90;;;0.80;99.90;;;;;;4132915;28;20497;-77
2022/01/16 08:55:58;;;;;;;22.93;10.80;;;0.80;99.90;;;;;;4141327;28;20965;-77
2022/01/16 08:58:00;;;;;;;22.00;10.70;;;0.90;99.90;;;;;;4152713;28;20489;-76
2022/01/16 09:00:02;;;;;;;24.27;11.17;;;0.90;99.90;;;;;;4144537;28;20476;-77
2022/01/16 09:02:05;;;;;;;24.23;11.23;;;0.90;99.90;;;;;;4151563;28;20983;-76
2022/01/16 09:04:06;;;;;;;27.13;12.03;;;0.90;99.90;;;;;;4130154;28;20449;-77
2022/01/16 09:06:08;;;;;;;26.67;11.70;;;0.90;99.90;;;;;;4145064;28;20508;-76
2022/01/16 09:08:10;;;;;;;25.13;12.07;;;1.00;99.90;;;;;;4210150;22;20512;-79
2022/01/16 09:10:12;;;;;;;24.60;11.90;;;1.00;99.90;;;;;;4179008;28;20495;-79
2022/01/16 09:12:15;;;;;;;23.50;10.97;;;1.40;99.90;;;;;;4173093;28;20468;-79
2022/01/16 09:14:17;;;;;;;23.37;11.37;;;1.10;99.90;;;;;;4172713;28;20466;-79
2022/01/16 09:16:19;;;;;;;22.13;11.13;;;1.10;99.90;;;;;;4172946;28;20463;-79
2022/01/16 09:18:20;;;;;;;23.83;11.83;;;1.10;99.90;;;;;;4164841;28;20511;-79
2022/01/16 09:20:22;;;;;;;22.77;10.73;;;1.10;99.90;;;;;;4158040;28;20944;-79
2022/01/16 09:22:24;;;;;;;21.83;10.30;;;1.20;99.90;;;;;;4162292;28;20843;-80
2022/01/16 09:24:26;;;;;;;23.33;10.80;;;1.20;99.90;;;;;;4161738;28;20490;-79
2022/01/16 09:26:27;;;;;;;22.33;10.40;;;1.20;99.90;;;;;;4162346;28;20505;-79
2022/01/16 09:28:30;;;;;;;23.07;10.27;;;1.20;99.90;;;;;;4162176;28;20481;-79
2022/01/16 09:30:33;;;;;;;21.00;9.87;;;1.20;99.90;;;;;;4155890;28;20531;-79
2022/01/16 09:32:36;;;;;;;18.23;9.40;;;1.30;99.90;;;;;;4160767;28;20465;-79
2022/01/16 09:34:38;;;;;;;19.07;8.60;;;1.30;99.90;;;;;;4164846;28;20481;-79
2022/01/16 09:36:40;;;;;;;16.97;8.50;;;1.30;99.90;;;;;;4161326;28;20457;-80
2022/01/16 09:38:43;;;;;;;20.70;8.80;;;1.40;99.90;;;;;;4149274;28;20475;-79
2022/01/16 09:40:46;;;;;;;20.00;9.13;;;1.30;99.90;;;;;;4151513;28;20552;-79
2022/01/16 09:42:49;;;;;;;16.67;8.60;;;1.40;99.90;;;;;;4158018;28;21053;-79
2022/01/16 09:44:53;;;;;;;16.17;8.00;;;1.40;99.90;;;;;;4164304;28;20539;-79
2022/01/16 09:46:54;;;;;;;15.77;8.67;;;1.40;99.90;;;;;;4170784;28;20970;-79
2022/01/16 09:48:56;;;;;;;16.80;8.30;;;1.50;99.90;;;;;;4165473;28;20476;-80
2022/01/16 09:50:58;;;;;;;16.87;8.37;;;1.50;99.90;;;;;;4164955;28;20543;-79
2022/01/16 09:53:01;;;;;;;18.77;8.83;;;1.50;99.90;;;;;;4168334;28;20465;-79
2022/01/16 09:55:06;;;;;;;16.00;7.80;;;1.50;99.90;;;;;;4165942;28;20960;-78
2022/01/16 09:57:10;;;;;;;17.37;8.20;;;1.50;99.90;;;;;;4165681;28;20511;-80
2022/01/16 09:59:11;;;;;;;17.23;8.43;;;1.60;99.90;;;;;;4158662;28;20478;-80
2022/01/16 10:01:23;;;;;;;19.10;8.60;;;1.60;99.90;;;;;;4150556;28;20449;-80
2022/01/16 10:03:39;;;;;;;19.33;9.23;;;1.60;99.90;;;;;;4161087;28;20455;-80
2022/01/16 10:05:41;;;;;;;21.73;9.37;;;1.60;99.90;;;;;;4161100;28;20467;-79
2022/01/16 10:07:43;;;;;;;18.53;9.30;;;1.60;99.90;;;;;;4159769;28;20886;-80
2022/01/16 10:09:47;;;;;;;16.87;8.27;;;1.70;99.90;;;;;;4165668;28;21104;-80
2022/01/16 10:11:56;;;;;;;21.93;9.67;;;1.70;99.90;;;;;;4166271;28;20785;-80
2022/01/16 10:14:03;;;;;;;19.47;9.40;;;1.70;99.90;;;;;;4164625;28;20461;-80
2022/01/16 10:16:06;;;;;;;20.07;9.80;;;1.70;99.90;;;;;;4162527;28;21049;-79
2022/01/16 10:18:09;;;;;;;22.33;9.33;;;1.70;99.90;;;;;;4157901;28;20536;-79
2022/01/16 10:20:11;;;;;;;20.27;9.80;;;1.70;99.90;;;;;;4164950;28;20452;-80
2022/01/16 10:22:14;;;;;;;20.00;9.47;;;1.70;99.90;;;;;;4164976;28;20464;-79
2022/01/16 10:24:25;;;;;;;22.27;10.03;;;1.80;99.90;;;;;;4164037;28;20458;-80
2022/01/16 10:26:28;;;;;;;24.67;11.63;;;1.80;99.90;;;;;;4152279;28;20474;-80
2022/01/16 10:28:30;;;;;;;23.17;10.77;;;1.80;99.90;;;;;;4168105;28;20573;-79
2022/01/16 10:30:39;;;;;;;26.00;11.97;;;1.80;99.90;;;;;;4165389;28;20489;-79
2022/01/16 10:32:43;;;;;;;25.10;11.40;;;1.80;99.90;;;;;;4163350;28;20607;-79
2022/01/16 10:34:50;;;;;;;28.53;11.93;;;1.80;99.90;;;;;;4163309;28;20969;-79
2022/01/16 10:36:51;;;;;;;23.83;11.83;;;1.80;99.90;;;;;;4157018;28;20457;-79
2022/01/16 10:39:05;;;;;;;27.97;12.53;;;1.90;99.90;;;;;;4160546;28;20849;-79
2022/01/16 10:41:14;;;;;;;27.70;12.87;;;1.90;99.90;;;;;;4159803;28;20847;-80
2022/01/16 10:43:16;;;;;;;27.77;12.53;;;1.90;99.90;;;;;;4160061;28;20471;-79
2022/01/16 10:45:19;;;;;;;28.00;13.17;;;1.90;99.90;;;;;;4165657;28;20961;-79
2022/01/16 10:47:33;;;;;;;26.30;12.00;;;1.90;99.90;;;;;;4163799;28;20476;-79
2022/01/16 10:49:35;;;;;;;28.20;12.87;;;1.90;99.90;;;;;;4161316;28;20937;-79
2022/01/16 10:51:38;;;;;;;27.30;12.30;;;1.90;99.90;;;;;;4162904;28;20473;-79
2022/01/16 10:53:40;;;;;;;29.70;13.70;;;1.90;99.90;;;;;;4153905;28;20475;-79
2022/01/16 10:55:47;;;;;;;29.10;13.13;;;2.00;99.90;;;;;;4165405;28;20905;-80
2022/01/16 10:57:49;;;;;;;30.73;13.77;;;1.90;99.90;;;;;;4164887;28;20498;-79
2022/01/16 11:00:03;;;;;;;34.53;14.60;;;2.00;99.90;;;;;;4166556;28;20449;-79
2022/01/16 11:02:08;;;;;;;36.27;15.70;;;2.00;99.90;;;;;;4154938;28;21006;-79
2022/01/16 11:04:10;;;;;;;36.50;15.63;;;2.00;99.90;;;;;;4154986;28;20560;-79
2022/01/16 11:06:13;;;;;;;36.40;15.67;;;2.00;99.90;;;;;;4165624;28;20457;-79
2022/01/16 11:08:18;;;;;;;36.17;16.77;;;2.00;99.90;;;;;;4165582;28;20558;-80